Time;durP1;ratioP1;P1;durP2;ratioP2;P2;SDS_P1;SDS_P2;PMS_P1;PMS_P2;Temp;Humidity;BMP_temperature;BMP_pressure;BME280_temperature;BME280_humidity;BME280_pressure;Samples;Min_cycle;Max_cycle;Signal;HPM_P1;HPM_P2
2022/12/03 00:00:23;;;;;;;;;32.25;23.50;;;;;5.59;72.38;100985.13;6172749;23;45589;-75
2022/12/03 00:02:49;;;;;;;;;27.50;23.50;;;;;5.62;72.47;100982.38;6172856;23;45524;-75
2022/12/03 00:05:14;;;;;;;;;36.00;29.00;;;;;5.61;72.36;100985.91;6173906;23;45711;-75
2022/12/03 00:07:39;;;;;;;;;32.25;27.00;;;;;5.63;72.39;100985.81;6172139;23;48463;-75
2022/12/03 00:10:06;;;;;;;;;41.00;32.75;;;;;5.63;72.29;100984.06;6173170;23;45774;-75
2022/12/03 00:12:31;;;;;;;;;32.25;30.25;;;;;5.63;71.95;100978.03;6171904;23;46116;-75
2022/12/03 00:14:56;;;;;;;;;34.00;29.25;;;;;5.65;72.19;100982.25;6172281;23;47418;-75
2022/12/03 00:17:22;;;;;;;;;36.25;29.25;;;;;5.62;72.08;100969.38;6172975;23;46956;-75
2022/12/03 00:19:47;;;;;;;;;36.50;25.50;;;;;5.65;72.24;100969.25;6171028;23;45736;-76
2022/12/03 00:22:12;;;;;;;;;32.00;27.75;;;;;5.70;71.90;100974.25;6171284;23;45849;-75
2022/12/03 00:24:38;;;;;;;;;35.75;26.75;;;;;5.69;72.18;100969.97;6172273;22;45655;-75
2022/12/03 00:27:03;;;;;;;;;33.50;26.75;;;;;5.69;72.06;100967.34;6172492;23;46026;-76
2022/12/03 00:29:28;;;;;;;;;38.75;29.75;;;;;5.69;71.55;100962.16;6174308;22;46330;-74
2022/12/03 00:31:54;;;;;;;;;36.25;28.50;;;;;5.66;71.81;100955.38;6173389;23;45831;-76
2022/12/03 00:34:21;;;;;;;;;35.00;28.50;;;;;5.71;71.84;100966.38;6172682;23;46195;-76
2022/12/03 00:36:47;;;;;;;;;32.00;27.50;;;;;5.72;71.88;100967.25;6175080;23;47103;-75
2022/12/03 00:39:12;;;;;;;;;37.00;29.00;;;;;5.71;71.84;100956.00;6174028;23;45710;-75
2022/12/03 00:41:37;;;;;;;;;32.75;28.50;;;;;5.71;71.75;100950.78;6174557;23;45527;-74
2022/12/03 00:44:03;;;;;;;;;34.00;26.00;;;;;5.74;71.52;100962.78;6174927;23;46018;-75
2022/12/03 00:46:28;;;;;;;;;35.00;26.00;;;;;5.64;71.64;100935.53;6174698;23;47127;-74
2022/12/03 00:48:54;;;;;;;;;33.75;27.00;;;;;5.77;71.22;100949.69;6176028;23;45569;-75
2022/12/03 00:51:19;;;;;;;;;34.25;29.00;;;;;5.66;71.33;100938.91;6174924;23;45656;-76
2022/12/03 00:53:44;;;;;;;;;38.75;25.75;;;;;5.73;71.01;100958.50;6174014;23;45904;-76
2022/12/03 00:56:10;;;;;;;;;32.50;28.25;;;;;5.71;71.29;100962.94;6175318;23;45956;-75
2022/12/03 00:58:35;;;;;;;;;32.75;28.00;;;;;5.65;71.37;100952.81;6174670;22;45630;-74
2022/12/03 01:01:01;;;;;;;;;40.25;32.00;;;;;5.69;71.44;100964.75;6174792;23;45707;-75
2022/12/03 01:03:26;;;;;;;;;37.50;30.00;;;;;5.66;71.63;100960.56;6173968;22;46349;-76
2022/12/03 01:05:51;;;;;;;;;30.00;28.00;;;;;5.69;71.51;100967.34;6175223;23;46088;-76
2022/12/03 01:08:17;;;;;;;;;26.00;21.50;;;;;5.69;71.65;100963.00;6174866;23;45820;-75
2022/12/03 01:10:42;;;;;;;;;27.25;19.25;;;;;5.66;71.60;100959.72;6173209;23;45903;-76
2022/12/03 01:13:08;;;;;;;;;35.25;27.75;;;;;5.69;71.15;100947.41;6174326;22;45702;-74
2022/12/03 01:15:33;;;;;;;;;37.00;27.75;;;;;5.71;71.56;100958.59;6174231;22;46067;-74
2022/12/03 01:17:59;;;;;;;;;40.25;32.00;;;;;5.72;71.11;100962.84;6174246;23;45500;-74
2022/12/03 01:20:25;;;;;;;;;35.25;27.50;;;;;5.72;71.31;100957.66;6174810;23;45557;-75
2022/12/03 01:22:50;;;;;;;;;31.75;26.50;;;;;5.73;70.99;100958.50;6173787;23;45650;-75
2022/12/03 01:25:16;;;;;;;;;33.00;21.25;;;;;5.71;71.48;100958.59;6175434;22;46013;-74
2022/12/03 01:27:41;;;;;;;;;31.25;20.25;;;;;5.71;71.48;100953.41;6173236;23;45883;-75
2022/12/03 01:30:08;;;;;;;;;33.75;28.25;;;;;5.69;71.18;100951.75;6174784;23;45441;-74
2022/12/03 01:32:33;;;;;;;;;33.50;25.00;;;;;5.70;71.36;100954.31;6173555;22;45625;-74
2022/12/03 01:34:58;;;;;;;;;33.75;24.75;;;;;5.70;70.94;100953.47;6173650;23;46149;-73
2022/12/03 01:37:25;;;;;;;;;33.00;28.75;;;;;5.70;71.34;100953.47;6174013;23;45749;-75
2022/12/03 01:39:51;;;;;;;;;38.75;33.50;;;;;5.69;71.03;100952.63;6175010;22;45577;-75
2022/12/03 01:42:21;;;;;;;;;35.00;27.75;;;;;5.70;71.09;100951.69;6173093;22;46626;-77
2022/12/03 01:44:47;;;;;;;;;35.00;28.25;;;;;5.71;70.97;100956.00;6174199;22;46239;-74
2022/12/03 01:47:17;;;;;;;;;38.00;30.25;;;;;5.70;71.40;100956.06;6174038;23;45625;-76
2022/12/03 01:49:50;;;;;;;;;32.75;26.00;;;;;5.70;70.99;100962.09;6174860;23;45993;-76
2022/12/03 01:52:20;;;;;;;;;36.25;31.75;;;;;5.70;71.05;100953.47;6172749;23;47358;-76
2022/12/03 01:54:50;;;;;;;;;33.75;29.75;;;;;5.68;71.02;100953.53;6174230;22;46184;-74
2022/12/03 01:57:23;;;;;;;;;33.25;28.50;;;;;5.72;71.01;100956.84;6174756;22;45709;-75
2022/12/03 01:59:52;;;;;;;;;32.25;27.00;;;;;5.69;70.88;100952.63;6174843;22;45743;-75
2022/12/03 02:02:26;;;;;;;;;31.00;26.75;;;;;5.71;71.04;100965.53;6173587;22;46314;-76
2022/12/03 02:04:52;;;;;;;;;28.25;28.00;;;;;5.71;70.52;100961.19;6173932;22;46548;-75
2022/12/03 02:07:35;;;;;;;;;42.25;27.50;;;;;5.72;70.61;100965.44;6174128;22;45940;-75
2022/12/03 02:10:01;;;;;;;;;34.50;25.00;;;;;5.72;70.92;100962.84;6174959;22;45898;-76
2022/12/03 02:12:29;;;;;;;;;32.75;25.25;;;;;5.73;70.89;100951.56;6173307;23;46754;-75
2022/12/03 02:14:55;;;;;;;;;22.25;18.25;;;;;5.73;70.25;100956.75;6173989;22;45681;-74
2022/12/03 02:17:20;;;;;;;;;32.50;29.50;;;;;5.70;70.68;100951.69;6174175;23;45625;-75
2022/12/03 02:19:46;;;;;;;;;35.00;26.50;;;;;5.67;70.71;100954.41;6174673;23;46053;-75
2022/12/03 02:22:32;;;;;;;;;33.00;28.25;;;;;5.76;70.77;100963.59;6173063;23;47454;-74
2022/12/03 02:24:58;;;;;;;;;37.00;29.50;;;;;5.78;70.77;100957.38;6173770;22;46307;-75
2022/12/03 02:27:24;;;;;;;;;49.00;33.25;;;;;5.79;70.59;100961.66;6174142;23;45603;-75
2022/12/03 02:29:50;;;;;;;;;43.00;35.00;;;;;5.80;70.26;100959.91;6175002;22;45621;-75
2022/12/03 02:32:15;;;;;;;;;33.00;29.00;;;;;5.79;70.54;100958.22;6173771;22;45525;-73
2022/12/03 02:34:43;;;;;;;;;34.00;29.75;;;;;5.80;70.38;100958.16;6174399;22;45644;-75
2022/12/03 02:37:14;;;;;;;;;38.75;30.75;;;;;5.78;70.52;100956.53;6174572;22;45900;-75
2022/12/03 02:39:43;;;;;;;;;37.00;29.50;;;;;5.75;70.43;100947.13;6174552;22;45594;-75
2022/12/03 02:44:55;;;;;;;;;35.75;27.75;;;;;5.67;70.49;100941.44;6174222;23;46389;-76
2022/12/03 02:47:21;;;;;;;;;49.25;35.75;;;;;5.69;70.22;100939.63;6174281;22;45927;-76
2022/12/03 02:49:47;;;;;;;;;43.50;33.50;;;;;5.66;70.60;100931.97;6175130;23;45953;-76
2022/12/03 02:52:13;;;;;;;;;42.00;33.50;;;;;5.70;70.17;100945.66;6172981;22;46789;-74
2022/12/03 02:54:38;;;;;;;;;48.00;32.25;;;;;5.66;70.68;100947.56;6174526;23;45894;-76
2022/12/03 02:57:04;;;;;;;;;35.75;31.50;;;;;5.64;70.59;100933.78;6174083;22;45810;-76
2022/12/03 02:59:30;;;;;;;;;38.75;34.00;;;;;5.70;70.61;100951.69;6172986;23;45669;-77
2022/12/03 03:01:55;;;;;;;;;33.75;28.00;;;;;5.68;71.12;100937.06;6172838;23;47359;-76
2022/12/03 03:04:23;;;;;;;;;46.00;35.00;;;;;5.69;70.69;100944.81;6174066;22;46116;-75
2022/12/03 03:06:51;;;;;;;;;33.50;29.25;;;;;5.69;70.84;100947.41;6172132;23;45572;-75
2022/12/03 03:09:17;;;;;;;;;36.75;24.25;;;;;5.71;70.82;100942.16;6175006;22;45796;-75
2022/12/03 03:11:43;;;;;;;;;37.75;29.75;;;;;5.67;70.55;100938.81;6173303;22;45703;-75
2022/12/03 03:14:09;;;;;;;;;28.75;26.25;;;;;5.69;70.72;100944.81;6172029;23;47415;-76
2022/12/03 03:16:34;;;;;;;;;38.25;35.50;;;;;5.68;70.62;100944.88;6173510;23;45627;-75
2022/12/03 03:19:01;;;;;;;;;34.50;23.25;;;;;5.66;70.80;100946.72;6174914;22;45544;-74
2022/12/03 03:21:26;;;;;;;;;48.50;34.50;;;;;5.64;71.02;100944.19;6172640;23;45893;-76
2022/12/03 03:23:52;;;;;;;;;40.50;32.25;;;;;5.59;71.07;100934.91;6173296;22;46153;-76
2022/12/03 03:26:17;;;;;;;;;31.00;23.25;;;;;5.62;71.36;100939.94;6174822;23;45871;-76
2022/12/03 03:28:47;;;;;;;;;40.75;33.75;;;;;5.56;70.91;100924.66;6174411;23;45807;-76
2022/12/03 03:31:16;;;;;;;;;37.50;29.25;;;;;5.61;70.88;100941.72;6172511;22;46328;-75
2022/12/03 03:33:44;;;;;;;;;42.25;30.25;;;;;5.57;70.70;100945.34;6174148;22;46616;-76
2022/12/03 03:36:11;;;;;;;;;36.50;25.25;;;;;5.54;71.14;100940.31;6174406;22;45600;-76
2022/12/03 03:38:38;;;;;;;;;33.50;30.00;;;;;5.56;71.17;100945.44;6173529;23;45987;-75
2022/12/03 03:41:04;;;;;;;;;37.25;32.25;;;;;5.44;71.21;100924.31;6172307;23;46589;-76
2022/12/03 03:43:33;;;;;;;;;32.00;28.00;;;;;5.52;70.98;100929.13;6172410;22;46781;-75
2022/12/03 03:46:00;;;;;;;;;38.75;31.00;;;;;5.57;70.89;100941.91;6173672;22;45536;-75
2022/12/03 03:48:26;;;;;;;;;45.75;32.00;;;;;5.55;70.74;100934.22;6174166;23;45500;-74
2022/12/03 03:50:52;;;;;;;;;37.25;32.00;;;;;5.52;71.16;100934.34;6174128;23;46173;-74
2022/12/03 03:53:19;;;;;;;;;31.25;23.50;;;;;5.57;70.92;100934.97;6171315;22;46071;-74
2022/12/03 03:55:45;;;;;;;;;40.25;31.75;;;;;5.59;70.54;100946.16;6173474;22;45675;-75
2022/12/03 03:58:11;;;;;;;;;43.75;34.00;;;;;5.60;70.79;100936.59;6173952;22;45560;-76
2022/12/03 04:00:36;;;;;;;;;34.25;28.50;;;;;5.53;70.35;100930.81;6174244;22;46056;-77
2022/12/03 04:03:03;;;;;;;;;49.00;33.25;;;;;5.63;70.38;100945.09;6171545;22;46038;-76
2022/12/03 04:05:29;;;;;;;;;45.50;34.25;;;;;5.59;70.46;100930.56;6173179;23;45626;-75
2022/12/03 04:07:54;;;;;;;;;28.50;25.25;;;;;5.65;70.57;100942.44;6173927;22;45619;-76
2022/12/03 04:13:04;;;;;;;;;41.00;26.50;;;;;5.63;69.97;100932.09;6173855;23;45846;-73
2022/12/03 04:15:30;;;;;;;;;40.75;32.00;;;;;5.64;70.26;100927.75;6173044;23;45852;-76
2022/12/03 04:20:40;;;;;;;;;29.75;26.25;;;;;5.62;70.02;100927.81;6175074;23;45516;-75
2022/12/03 04:23:06;;;;;;;;;27.25;23.50;;;;;5.58;70.07;100921.06;6173291;23;46044;-75
2022/12/03 04:30:59;;;;;;;;;34.75;28.50;;;;;5.60;69.86;100924.44;6173842;23;45759;-75
2022/12/03 04:36:09;;;;;;;;;44.75;27.75;;;;;5.58;69.64;100917.63;6175242;23;45529;-75
2022/12/03 04:38:34;;;;;;;;;32.00;29.25;;;;;5.59;69.50;100919.31;6174974;22;45993;-76
2022/12/03 04:41:00;;;;;;;;;38.25;31.00;;;;;5.60;69.26;100921.00;6173707;23;46044;-76
2022/12/03 04:44:31;;;;;;;;;36.00;28.50;;;;;5.53;69.40;100897.03;6174260;22;46400;-76
2022/12/03 04:46:23;;;;;;;;;33.50;29.75;;;;;5.59;69.60;100916.72;6174595;23;45670;-75
2022/12/03 04:48:48;;;;;;;;;38.50;31.25;;;;;5.60;69.26;100919.25;6175241;23;45561;-76
2022/12/03 04:51:13;;;;;;;;;30.75;27.50;;;;;5.59;69.21;100909.75;6173070;23;45957;-75
2022/12/03 04:53:39;;;;;;;;;30.75;23.50;;;;;5.60;68.95;100914.06;6172148;23;47266;-74
2022/12/03 04:56:05;;;;;;;;;35.75;29.75;;;;;5.60;69.20;100915.81;6174666;23;45632;-76
2022/12/03 04:58:30;;;;;;;;;33.75;26.25;;;;;5.59;69.34;100916.72;6175073;23;45746;-76
2022/12/03 05:00:55;;;;;;;;;38.50;29.50;;;;;5.62;68.94;100916.56;6173241;23;47775;-75
2022/12/03 05:03:20;;;;;;;;;33.25;29.50;;;;;5.63;68.83;100916.50;6173545;23;46115;-74
2022/12/03 05:05:46;;;;;;;;;29.50;23.50;;;;;5.58;69.20;100907.22;6175319;23;45851;-76
2022/12/03 05:08:11;;;;;;;;;24.25;23.25;;;;;5.64;69.46;100912.16;6174868;23;45848;-75
2022/12/03 05:10:36;;;;;;;;;39.75;32.50;;;;;5.65;69.09;100911.25;6174595;23;46977;-76
2022/12/03 05:13:02;;;;;;;;;34.00;24.50;;;;;5.60;68.91;100903.66;6173647;22;46077;-75
2022/12/03 05:15:27;;;;;;;;;36.75;27.50;;;;;5.58;68.89;100894.22;6173066;23;45686;-75
2022/12/03 05:17:52;;;;;;;;;41.25;29.75;;;;;5.58;69.10;100899.44;6174550;23;45767;-76
2022/12/03 05:23:02;;;;;;;;;35.50;26.75;;;;;5.54;69.40;100905.69;6172983;23;45780;-76
2022/12/03 05:25:27;;;;;;;;;35.75;25.75;;;;;5.54;69.13;100916.09;6173823;23;45589;-74
2022/12/03 05:27:52;;;;;;;;;28.75;24.00;;;;;5.53;68.86;100907.44;6174846;23;45612;-74
2022/12/03 05:30:18;;;;;;;;;29.50;25.75;;;;;5.53;69.08;100909.19;6174113;23;47149;-75
2022/12/03 05:32:43;;;;;;;;;31.25;25.25;;;;;5.51;68.90;100905.84;6173145;23;46872;-74
2022/12/03 05:35:10;;;;;;;;;32.75;25.25;;;;;5.53;68.79;100915.22;6174758;23;45729;-75
2022/12/03 05:37:35;;;;;;;;;28.75;25.75;;;;;5.51;68.86;100911.84;6174938;22;45882;-76
2022/12/03 05:40:00;;;;;;;;;24.25;17.75;;;;;5.53;68.71;100909.19;6174863;23;45828;-74
2022/12/03 05:45:10;;;;;;;;;35.00;28.50;;;;;5.55;69.20;100903.03;6174804;23;45472;-75
2022/12/03 05:47:35;;;;;;;;;35.00;28.00;;;;;5.57;69.16;100905.53;6174995;23;45708;-76
2022/12/03 05:50:02;;;;;;;;;26.00;22.75;;;;;5.40;68.64;100873.38;6174734;23;45791;-77
2022/12/03 05:52:27;;;;;;;;;29.00;25.00;;;;;5.56;68.91;100894.28;6172351;23;47023;-76
2022/12/03 05:54:52;;;;;;;;;29.00;25.25;;;;;5.57;68.51;100905.53;6170708;23;45863;-75
2022/12/03 05:57:18;;;;;;;;;33.00;28.00;;;;;5.51;68.84;100898.03;6174555;23;45936;-76
2022/12/03 05:59:43;;;;;;;;;25.25;21.50;;;;;5.58;68.48;100905.47;6174229;23;45789;-76
2022/12/03 06:02:08;;;;;;;;;31.00;25.25;;;;;5.53;68.74;100901.41;6173208;23;46052;-76
2022/12/03 06:04:34;;;;;;;;;27.75;26.00;;;;;5.59;68.52;100909.75;6173832;23;45770;-75
2022/12/03 06:06:59;;;;;;;;;26.25;22.75;;;;;5.59;68.72;100908.91;6174611;23;45758;-75
2022/12/03 06:09:24;;;;;;;;;30.50;26.00;;;;;5.52;68.53;100887.56;6173018;23;47174;-77
2022/12/03 06:11:52;;;;;;;;;33.50;24.75;;;;;5.60;68.97;100905.41;6173663;23;45865;-76
2022/12/03 06:14:18;;;;;;;;;31.75;26.00;;;;;5.53;68.44;100886.66;6174084;23;45905;-75
2022/12/03 06:16:43;;;;;;;;;29.75;22.75;;;;;5.54;68.62;100893.53;6174223;22;45696;-76
2022/12/03 06:19:09;;;;;;;;;30.00;24.75;;;;;5.62;68.88;100898.38;6174192;23;46308;-78
2022/12/03 06:21:34;;;;;;;;;26.25;24.25;;;;;5.63;68.47;100903.50;6173108;23;46291;-78
2022/12/03 06:24:00;;;;;;;;;27.00;21.00;;;;;5.61;68.83;100902.75;6174151;23;45699;-76
2022/12/03 06:26:25;;;;;;;;;28.00;22.50;;;;;5.66;68.63;100895.59;6172887;23;45831;-76
2022/12/03 06:28:51;;;;;;;;;26.50;23.50;;;;;5.68;68.34;100901.53;6173457;22;46310;-77
2022/12/03 06:31:16;;;;;;;;;31.25;24.00;;;;;5.69;68.45;100903.22;6172445;22;45911;-76
2022/12/03 06:33:41;;;;;;;;;24.00;21.25;;;;;5.69;68.71;100899.78;6172610;23;45639;-77
2022/12/03 06:36:07;;;;;;;;;27.50;24.75;;;;;5.67;68.55;100892.03;6172799;23;45729;-76
2022/12/03 06:38:33;;;;;;;;;32.25;28.25;;;;;5.59;68.41;100875.13;6174151;22;46230;-76
2022/12/03 06:40:58;;;;;;;;;20.75;19.25;;;;;5.69;68.57;100903.22;6172915;23;46612;-77
2022/12/03 06:43:23;;;;;;;;;26.75;22.50;;;;;5.72;68.41;100899.66;6173318;23;45638;-76
2022/12/03 06:45:49;;;;;;;;;26.00;21.00;;;;;5.74;68.23;100900.41;6174625;22;45612;-76
2022/12/03 06:48:14;;;;;;;;;23.75;21.00;;;;;5.74;68.44;100903.00;6173796;23;47482;-76
2022/12/03 06:50:39;;;;;;;;;25.50;22.50;;;;;5.75;68.19;100910.75;6174850;22;45706;-77
2022/12/03 06:53:05;;;;;;;;;16.00;13.00;;;;;5.61;67.74;100879.38;6172772;23;45695;-76
2022/12/03 06:55:30;;;;;;;;;27.00;23.50;;;;;5.74;68.20;100906.44;6173580;23;45683;-77
2022/12/03 06:57:55;;;;;;;;;34.50;25.00;;;;;5.76;68.30;100907.25;6172144;23;46316;-77
2022/12/03 07:00:21;;;;;;;;;24.50;20.00;;;;;5.78;68.17;100908.00;6174749;23;47216;-76
2022/12/03 07:02:46;;;;;;;;;27.00;18.50;;;;;5.80;67.54;100908.78;6173926;23;45866;-78
2022/12/03 07:05:12;;;;;;;;;27.50;22.75;;;;;5.78;67.56;100900.19;6174179;23;46155;-78
2022/12/03 07:07:37;;;;;;;;;26.25;22.50;;;;;5.68;67.90;100872.09;6174211;23;46504;-78
2022/12/03 07:10:03;;;;;;;;;31.75;24.00;;;;;5.76;68.04;100901.19;6172307;23;46204;-77
2022/12/03 07:12:29;;;;;;;;;34.50;26.25;;;;;5.82;67.43;100900.91;6171592;23;45631;-76
2022/12/03 07:14:54;;;;;;;;;26.75;22.50;;;;;5.73;67.80;100883.97;6171950;23;45885;-76
2022/12/03 07:17:20;;;;;;;;;29.50;22.50;;;;;5.82;67.61;100901.75;6173625;23;46342;-77
2022/12/03 07:19:45;;;;;;;;;25.75;19.50;;;;;5.75;67.51;100897.75;6173642;22;45596;-80
2022/12/03 07:22:10;;;;;;;;;31.00;21.00;;;;;5.78;67.19;100905.38;6173105;23;45982;-80
2022/12/03 07:24:37;;;;;;;;;31.50;23.25;;;;;5.81;67.40;100904.41;6173475;23;45775;-78
2022/12/03 07:27:03;;;;;;;;;30.00;23.00;;;;;5.79;67.56;100908.84;6174032;23;47229;-80
2022/12/03 07:29:28;;;;;;;;;20.75;18.50;;;;;5.81;67.69;100907.03;6171977;23;47968;-79
2022/12/03 07:31:53;;;;;;;;;29.00;22.00;;;;;5.81;67.30;100915.66;6173507;22;46100;-80
2022/12/03 07:34:19;;;;;;;;;22.50;20.25;;;;;5.78;67.46;100913.19;6173243;23;46231;-79
2022/12/03 07:36:44;;;;;;;;;25.25;20.00;;;;;5.84;67.63;100920.72;6174763;22;46639;-78
2022/12/03 07:39:13;;;;;;;;;27.00;23.75;;;;;5.85;67.22;100927.59;6174765;22;45664;-79
2022/12/03 07:41:38;;;;;;;;;25.50;24.75;;;;;5.85;67.05;100912.00;6172080;23;45641;-76
2022/12/03 07:44:04;;;;;;;;;26.00;21.75;;;;;5.83;67.03;100907.81;6174708;23;45649;-76
2022/12/03 07:46:29;;;;;;;;;24.50;18.75;;;;;5.87;67.33;100923.22;6173581;22;46362;-74
2022/12/03 07:48:55;;;;;;;;;21.75;20.25;;;;;5.85;67.14;100913.75;6173607;23;45697;-75
2022/12/03 07:51:20;;;;;;;;;21.00;19.00;;;;;5.87;66.92;100928.41;6174096;23;45700;-77
2022/12/03 07:53:45;;;;;;;;;21.50;15.00;;;;;5.87;66.77;100914.56;6173404;23;45621;-75
2022/12/03 07:56:11;;;;;;;;;21.25;20.75;;;;;5.88;67.09;100924.88;6173130;23;47391;-76
2022/12/03 07:58:36;;;;;;;;;24.00;21.25;;;;;5.87;66.67;100925.81;6175015;23;45977;-75
2022/12/03 08:01:01;;;;;;;;;24.75;18.50;;;;;5.84;67.05;100927.66;6174029;23;46020;-77
2022/12/03 08:03:27;;;;;;;;;24.75;18.75;;;;;5.88;66.52;100918.84;6173030;23;45829;-76
2022/12/03 08:05:52;;;;;;;;;25.25;20.75;;;;;5.91;66.89;100923.91;6174637;23;47656;-78
2022/12/03 08:08:17;;;;;;;;;25.50;20.50;;;;;5.93;66.48;100936.84;6174670;23;46837;-77
2022/12/03 08:10:43;;;;;;;;;28.25;21.75;;;;;5.92;66.66;100929.94;6174470;23;45874;-77
2022/12/03 08:13:17;;;;;;;;;23.50;20.50;;;;;5.93;66.61;100918.63;6173338;23;45635;-75
2022/12/03 08:15:43;;;;;;;;;25.25;20.00;;;;;5.85;66.44;100886.00;6171300;23;47389;-76
2022/12/03 08:18:13;;;;;;;;;14.75;9.00;;;;;5.97;66.02;100922.78;6163358;22;46045;-76
2022/12/03 08:20:41;;;;;;;;;19.75;17.75;;;;;5.95;66.08;100916.78;6172019;22;46185;-75
2022/12/03 08:23:12;;;;;;;;;20.75;18.25;;;;;5.95;65.77;100915.03;6170397;23;46041;-76
2022/12/03 08:25:38;;;;;;;;;22.25;18.75;;;;;5.95;66.07;100912.44;6172564;22;46759;-76
2022/12/03 08:28:21;;;;;;;;;22.25;18.00;;;;;5.88;65.71;100901.47;6174840;23;45718;-77
2022/12/03 08:31:00;;;;;;;;;20.50;19.00;;;;;5.90;66.00;100910.06;6173847;22;46002;-76
2022/12/03 08:33:35;;;;;;;;;23.25;16.50;;;;;5.95;66.01;100914.19;6172531;22;45748;-76
2022/12/03 08:36:11;;;;;;;;;19.75;17.00;;;;;5.92;65.88;100909.16;6174324;23;46298;-77
2022/12/03 08:38:37;;;;;;;;;17.75;15.75;;;;;5.92;65.83;100923.00;6174686;23;47462;-77
2022/12/03 08:41:12;;;;;;;;;15.25;10.25;;;;;5.87;65.69;100899.81;6173537;23;45692;-75
2022/12/03 08:43:41;;;;;;;;;23.25;20.25;;;;;5.87;65.89;100907.63;6174296;22;45619;-75
2022/12/03 08:46:13;;;;;;;;;24.25;20.00;;;;;5.90;65.61;100910.06;6173042;22;46715;-74
2022/12/03 08:48:39;;;;;;;;;21.25;19.00;;;;;5.86;65.94;100905.88;6174620;22;46122;-75
2022/12/03 08:51:24;;;;;;;;;18.50;16.25;;;;;5.90;66.23;100909.22;6172337;23;45997;-75
2022/12/03 08:53:57;;;;;;;;;18.00;16.25;;;;;5.92;65.69;100923.00;6175159;23;45714;-76
2022/12/03 08:56:28;;;;;;;;;21.25;17.50;;;;;5.93;65.95;100923.84;6173966;23;45805;-75
2022/12/03 08:58:55;;;;;;;;;19.50;15.50;;;;;5.91;65.56;100921.31;6174717;22;46268;-74
2022/12/03 09:01:47;;;;;;;;;27.25;19.75;;;;;5.93;65.92;100913.44;6174265;22;45592;-73
2022/12/03 09:04:36;;;;;;;;;21.75;19.00;;;;;5.93;65.75;100910.84;6170439;23;45920;-75
2022/12/03 09:07:01;;;;;;;;;17.75;16.50;;;;;5.89;65.99;100926.56;6176125;22;46031;-75
2022/12/03 09:09:27;;;;;;;;;23.50;16.00;;;;;5.82;65.59;100908.72;6177428;23;45828;-75
2022/12/03 09:11:53;;;;;;;;;19.50;15.75;;;;;5.80;65.89;100910.53;6179023;23;46105;-73
2022/12/03 09:14:22;;;;;;;;;21.25;17.00;;;;;5.87;65.54;100914.56;6179940;22;45611;-73
2022/12/03 09:16:50;;;;;;;;;21.75;14.75;;;;;5.79;65.58;100903.63;6172548;23;47356;-74
2022/12/03 09:19:16;;;;;;;;;18.75;14.75;;;;;5.85;65.94;100925.00;6174339;22;46345;-74
2022/12/03 09:21:41;;;;;;;;;20.50;19.50;;;;;5.84;65.42;100915.50;6174811;22;46061;-75
2022/12/03 09:24:07;;;;;;;;;26.00;20.00;;;;;5.87;65.71;100917.16;6174769;23;46183;-76
2022/12/03 09:26:32;;;;;;;;;19.00;17.25;;;;;5.86;65.85;100916.28;6173234;23;46238;-74
2022/12/03 09:28:57;;;;;;;;;21.25;16.75;;;;;5.87;65.84;100906.78;6174670;23;46092;-76
2022/12/03 09:31:23;;;;;;;;;22.75;18.25;;;;;5.85;65.74;100912.00;6171872;23;45895;-75
2022/12/03 09:33:48;;;;;;;;;18.75;17.25;;;;;5.83;65.28;100911.22;6173017;23;45790;-74
2022/12/03 09:36:13;;;;;;;;;19.25;18.25;;;;;5.92;65.23;100922.16;6174150;23;47399;-72
2022/12/03 09:38:39;;;;;;;;;23.00;19.50;;;;;5.93;65.38;100934.25;6175134;23;45949;-74
2022/12/03 09:41:04;;;;;;;;;19.75;17.25;;;;;5.92;65.55;100915.19;6172576;23;45741;-73
2022/12/03 09:43:32;;;;;;;;;22.25;16.75;;;;;5.89;65.88;100910.13;6173332;23;45685;-76
2022/12/03 09:45:58;;;;;;;;;21.00;15.75;;;;;5.92;65.86;100915.19;6175300;22;45888;-75
2022/12/03 09:48:23;;;;;;;;;18.75;16.25;;;;;5.92;65.34;100909.16;6175290;23;45767;-74
2022/12/03 09:50:49;;;;;;;;;17.25;14.00;;;;;5.97;65.32;100915.81;6174439;23;45548;-74
2022/12/03 09:53:19;;;;;;;;;17.25;16.00;;;;;5.97;65.52;100915.81;6175332;22;45687;-74
2022/12/03 09:55:45;;;;;;;;;23.75;21.50;;;;;5.99;65.64;100910.56;6175668;22;45724;-75
2022/12/03 09:58:13;;;;;;;;;24.00;15.00;;;;;6.03;65.53;100906.88;6175273;22;46054;-73
2022/12/03 10:00:40;;;;;;;;;22.00;18.00;;;;;6.05;65.55;100903.28;6172916;23;46178;-73
2022/12/03 10:03:06;;;;;;;;;22.25;19.25;;;;;6.06;65.58;100902.38;6173179;23;45834;-73
2022/12/03 10:05:33;;;;;;;;;15.75;14.50;;;;;6.07;65.32;100909.25;6174777;23;45853;-73
2022/12/03 10:08:10;;;;;;;;;24.25;21.25;;;;;6.06;65.05;100894.56;6174796;22;46195;-75
2022/12/03 10:10:39;;;;;;;;;22.75;18.75;;;;;6.07;65.00;100898.00;6173782;22;45966;-74
2022/12/03 10:13:06;;;;;;;;;23.50;19.25;;;;;6.03;64.84;100893.88;6171862;23;45676;-75
2022/12/03 10:15:32;;;;;;;;;20.00;17.25;;;;;6.07;65.28;100901.47;6171198;22;46238;-74
2022/12/03 10:18:14;;;;;;;;;23.00;19.75;;;;;6.08;65.04;100892.75;6173334;22;46209;-74
2022/12/03 10:20:40;;;;;;;;;22.25;19.00;;;;;6.10;65.00;100895.28;6172980;22;45633;-75
2022/12/03 10:23:05;;;;;;;;;19.75;18.50;;;;;6.04;65.02;100873.00;6174089;23;45465;-76
2022/12/03 10:25:31;;;;;;;;;23.25;19.75;;;;;6.05;65.18;100866.88;6173800;23;47793;-73
2022/12/03 10:28:03;;;;;;;;;20.25;16.75;;;;;6.06;65.25;100865.13;6171513;23;47170;-75
2022/12/03 10:30:31;;;;;;;;;29.00;19.75;;;;;6.13;65.09;100885.56;6172278;23;45919;-75
2022/12/03 10:33:01;;;;;;;;;21.50;18.75;;;;;6.12;65.33;100880.44;6174058;23;46054;-75
2022/12/03 10:35:39;;;;;;;;;15.00;14.25;;;;;6.15;65.22;100881.16;6174293;23;46986;-74
2022/12/03 10:38:21;;;;;;;;;22.50;20.75;;;;;6.16;65.36;100885.41;6171606;23;46894;-75
2022/12/03 10:40:47;;;;;;;;;18.00;16.00;;;;;6.20;65.18;100875.72;6173434;23;45664;-75
2022/12/03 10:43:14;;;;;;;;;22.25;18.50;;;;;6.21;64.86;100880.81;6172861;22;45866;-73
2022/12/03 10:45:40;;;;;;;;;21.25;16.50;;;;;6.21;64.96;100867.81;6173223;23;47202;-75
2022/12/03 10:48:12;;;;;;;;;21.25;19.25;;;;;6.22;64.98;100881.66;6174409;22;45950;-75
2022/12/03 10:50:55;;;;;;;;;19.25;16.75;;;;;6.23;65.04;100876.41;6171811;23;46200;-74
2022/12/03 10:53:25;;;;;;;;;19.00;16.00;;;;;6.28;64.79;100868.34;6173842;22;45802;-74
2022/12/03 10:55:57;;;;;;;;;20.75;18.50;;;;;6.28;64.90;100865.75;6174165;22;46441;-76
2022/12/03 10:58:27;;;;;;;;;19.50;19.00;;;;;6.32;65.00;100864.69;6171310;23;47298;-75
2022/12/03 11:00:55;;;;;;;;;23.25;19.75;;;;;6.32;65.26;100856.88;6173570;22;46221;-74
2022/12/03 11:03:28;;;;;;;;;22.25;19.00;;;;;6.29;64.52;100854.44;6172655;23;45843;-75
2022/12/03 11:05:55;;;;;;;;;21.75;19.50;;;;;6.37;65.06;100860.09;6174249;23;47540;-75
2022/12/03 11:08:26;;;;;;;;;24.00;20.50;;;;;6.38;64.94;100850.53;6174061;23;47191;-76
2022/12/03 11:11:15;;;;;;;;;24.25;19.25;;;;;6.40;64.88;100848.69;6171517;23;46080;-78
2022/12/03 11:13:40;;;;;;;;;20.25;19.50;;;;;6.42;64.92;100852.94;6172916;22;45655;-75
2022/12/03 11:16:09;;;;;;;;;21.33;19.00;;;;;6.44;64.81;100853.66;6171451;23;47425;-75
2022/12/03 11:18:34;;;;;;;;;22.50;17.75;;;;;6.46;64.72;100851.84;6172626;22;46210;-74
2022/12/03 11:21:03;;;;;;;;;21.00;18.00;;;;;6.48;64.55;100859.59;6169785;23;45672;-76
2022/12/03 11:23:44;;;;;;;;;18.75;16.25;;;;;6.48;64.56;100842.19;6173078;23;45675;-75
2022/12/03 11:26:36;;;;;;;;;24.25;19.25;;;;;6.48;64.37;100839.56;6171626;23;47408;-76
2022/12/03 11:29:06;;;;;;;;;18.00;16.25;;;;;6.32;64.13;100810.03;6079458;23;46347;-79
2022/12/03 11:31:37;;;;;;;;;20.50;16.25;;;;;6.49;64.28;100840.44;6076457;23;46147;-79
2022/12/03 11:34:37;;;;;;;;;22.75;19.25;;;;;6.47;64.28;100848.34;6079920;23;45641;-77
2022/12/03 11:37:11;;;;;;;;;19.75;18.25;;;;;6.48;64.11;100838.75;6021706;23;47230;-75
2022/12/03 11:40:22;;;;;;;;;21.00;19.25;;;;;6.47;64.51;100834.47;6019137;23;46426;-76